createdAt,value
2019-03-03T00:00:21.505Z,88.10
2019-03-03T00:01:21.504Z,87.85
2019-03-03T00:02:21.471Z,88.51
2019-03-03T00:03:21.452Z,87.99
2019-03-03T00:04:21.482Z,87.99
2019-03-03T00:05:21.461Z,88.41
2019-03-03T00:06:21.422Z,88.20
2019-03-03T00:07:21.404Z,88.26
2019-03-03T00:08:21.401Z,88.10
2019-03-03T00:09:21.450Z,87.95
2019-03-03T00:10:21.380Z,87.95
2019-03-03T00:11:21.382Z,88.31
2019-03-03T00:12:21.367Z,87.74
2019-03-03T00:13:21.338Z,87.44
2019-03-03T00:14:21.345Z,87.95
2019-03-03T00:15:21.330Z,88.06
2019-03-03T00:16:21.332Z,88.37
2019-03-03T00:17:21.370Z,87.95
2019-03-03T00:18:21.307Z,87.54
2019-03-03T00:19:21.280Z,87.13
2019-03-03T00:20:21.276Z,87.23
2019-03-03T00:21:21.256Z,87.34
2019-03-03T00:22:21.246Z,87.34
2019-03-03T00:23:21.232Z,87.23
2019-03-03T00:24:21.225Z,87.34
2019-03-03T00:25:21.209Z,87.34
2019-03-03T00:26:21.222Z,87.23
2019-03-03T00:27:21.204Z,87.13
2019-03-03T00:28:21.199Z,87.23
2019-03-03T00:29:21.161Z,87.34
2019-03-03T00:30:21.161Z,87.54
2019-03-03T00:31:21.166Z,87.34
2019-03-03T00:32:21.152Z,87.54
2019-03-03T00:33:21.126Z,87.34
2019-03-03T00:34:21.139Z,87.34
2019-03-03T00:35:21.100Z,87.44
2019-03-03T00:36:21.096Z,87.23
2019-03-03T00:37:21.110Z,87.34
2019-03-03T00:38:21.093Z,87.85
2019-03-03T00:39:21.050Z,87.23
2019-03-03T00:40:21.044Z,87.85
2019-03-03T00:41:21.020Z,87.74
2019-03-03T00:42:21.056Z,87.85
2019-03-03T00:43:21.067Z,87.74
2019-03-03T00:44:20.996Z,87.85
2019-03-03T00:45:20.995Z,87.85
2019-03-03T00:46:20.983Z,88.26
2019-03-03T00:47:20.979Z,88.16
2019-03-03T00:48:20.950Z,88.16
2019-03-03T00:49:20.949Z,87.85
2019-03-03T00:50:20.960Z,88.37
2019-03-03T00:51:20.913Z,88.06
2019-03-03T00:52:20.915Z,88.89
2019-03-03T00:53:20.930Z,88.78
2019-03-03T00:54:20.876Z,88.82
2019-03-03T00:55:20.880Z,88.82
2019-03-03T00:56:20.870Z,88.57
2019-03-03T00:57:20.841Z,89.13
2019-03-03T00:58:20.834Z,88.92
2019-03-03T00:59:20.972Z,88.61
2019-03-03T01:00:20.835Z,88.47
2019-03-03T01:01:20.813Z,88.71
2019-03-03T01:02:20.792Z,88.61
2019-03-03T01:03:20.803Z,88.82
2019-03-03T01:04:20.804Z,88.61
2019-03-03T01:05:20.756Z,88.20
2019-03-03T01:06:20.774Z,88.71
2019-03-03T01:07:20.746Z,88.92
2019-03-03T01:08:20.722Z,88.71
2019-03-03T01:09:20.731Z,88.82
2019-03-03T01:10:20.724Z,88.51
2019-03-03T01:11:20.692Z,88.31
2019-03-03T01:12:20.686Z,88.51
2019-03-03T01:13:20.678Z,88.71
2019-03-03T01:14:20.677Z,88.82
2019-03-03T01:15:20.694Z,88.78
2019-03-03T01:16:20.643Z,88.61
2019-03-03T01:17:20.635Z,88.71
2019-03-03T01:18:20.626Z,88.71
2019-03-03T01:19:20.607Z,88.31
2019-03-03T01:20:20.631Z,88.20
2019-03-03T01:21:20.596Z,88.41
2019-03-03T01:22:20.584Z,88.51
2019-03-03T01:23:20.565Z,89.13
2019-03-03T01:24:20.562Z,88.41
2019-03-03T01:25:20.539Z,87.48
2019-03-03T01:26:20.533Z,87.99
2019-03-03T01:27:20.513Z,87.99
2019-03-03T01:28:20.509Z,87.99
2019-03-03T01:30:29.299Z,88.16
2019-03-03T01:31:29.247Z,87.74
2019-03-03T01:32:29.216Z,87.95
2019-03-03T01:33:29.201Z,87.74
2019-03-03T01:34:29.232Z,87.65
2019-03-03T01:35:29.195Z,87.65
2019-03-03T01:36:29.167Z,87.54
2019-03-03T01:37:29.174Z,87.34
2019-03-03T01:38:29.145Z,87.44
2019-03-03T01:39:29.188Z,87.54
2019-03-03T01:40:29.155Z,87.23
2019-03-03T01:41:29.123Z,87.23
2019-03-03T01:42:29.128Z,87.13
2019-03-03T01:43:29.098Z,87.23
2019-03-03T01:44:29.115Z,87.13
2019-03-03T01:45:29.090Z,86.82
2019-03-03T01:46:29.063Z,87.13
2019-03-03T01:47:29.065Z,86.92
2019-03-03T01:48:29.072Z,86.61
2019-03-03T01:49:29.053Z,86.51
2019-03-03T01:50:29.088Z,86.71
2019-03-03T01:51:29.027Z,86.41
2019-03-03T01:52:28.994Z,86.82
2019-03-03T01:53:28.984Z,86.68
2019-03-03T01:54:29.017Z,86.41
2019-03-03T01:55:28.969Z,86.36
2019-03-03T01:56:29.009Z,86.71
2019-03-03T01:57:28.941Z,86.68
2019-03-03T01:58:28.941Z,86.57
2019-03-03T01:59:35.974Z,86.88
2019-03-03T02:00:28.914Z,86.78
2019-03-03T02:01:28.903Z,86.57
2019-03-03T02:02:28.888Z,86.68
2019-03-03T02:03:28.880Z,86.61
2019-03-03T02:04:28.863Z,86.26
2019-03-03T02:05:28.854Z,86.88
2019-03-03T02:06:28.869Z,86.57
2019-03-03T02:07:28.838Z,86.47
2019-03-03T02:08:28.821Z,86.71
2019-03-03T02:09:28.837Z,86.78
2019-03-03T02:10:28.795Z,86.68
2019-03-03T02:11:28.798Z,86.78
2019-03-03T02:12:28.808Z,86.57
2019-03-03T02:13:28.761Z,86.68
2019-03-03T02:14:28.794Z,86.57
2019-03-03T02:15:28.757Z,86.78
2019-03-03T02:16:28.725Z,86.88
2019-03-03T02:17:28.754Z,86.78
2019-03-03T02:18:28.724Z,86.78
2019-03-03T02:19:28.694Z,86.57
2019-03-03T02:20:28.692Z,86.57
2019-03-03T02:21:28.684Z,86.68
2019-03-03T02:22:28.680Z,86.57
2019-03-03T02:23:28.654Z,86.68
2019-03-03T02:24:28.653Z,86.47
2019-03-03T02:25:28.658Z,86.47
2019-03-03T02:26:28.639Z,86.57
2019-03-03T02:27:28.633Z,86.57
2019-03-03T02:28:28.614Z,86.57
2019-03-03T02:29:28.591Z,86.68
2019-03-03T02:30:28.585Z,86.57
2019-03-03T02:31:28.570Z,86.88
2019-03-03T02:32:28.557Z,86.57
2019-03-03T02:33:28.571Z,86.88
2019-03-03T02:34:28.545Z,86.78
2019-03-03T02:35:35.872Z,86.57
2019-03-03T02:36:28.545Z,86.57
2019-03-03T02:37:28.497Z,86.68
2019-03-03T02:38:28.558Z,86.68
2019-03-03T02:39:28.484Z,86.78
2019-03-03T02:40:28.504Z,86.78
2019-03-03T02:41:28.521Z,86.26
2019-03-03T02:42:28.498Z,86.57
2019-03-03T02:43:28.578Z,86.16
2019-03-03T02:44:28.453Z,86.78
2019-03-03T02:45:28.412Z,86.68
2019-03-03T02:46:28.439Z,86.47
2019-03-03T02:47:28.421Z,86.57
2019-03-03T02:48:28.381Z,86.12
2019-03-03T02:49:28.394Z,86.88
2019-03-03T02:50:28.384Z,86.57
2019-03-03T02:51:28.346Z,86.57
2019-03-03T02:52:28.333Z,86.78
2019-03-03T02:53:28.358Z,86.78
2019-03-03T02:54:28.336Z,86.57
2019-03-03T02:55:28.316Z,86.78
2019-03-03T02:56:28.314Z,86.88
2019-03-03T02:57:28.276Z,86.98
2019-03-03T02:58:28.264Z,86.78
2019-03-03T02:59:28.294Z,86.78
2019-03-03T03:00:28.265Z,86.78
2019-03-03T03:01:28.235Z,86.68
2019-03-03T03:02:28.278Z,86.78
2019-03-03T03:03:28.231Z,86.36
2019-03-03T03:04:28.198Z,86.68
2019-03-03T03:05:28.209Z,86.57
2019-03-03T03:06:28.192Z,87.08
2019-03-03T03:07:28.171Z,86.68
2019-03-03T03:08:28.197Z,86.78
2019-03-03T03:09:28.172Z,86.16
2019-03-03T03:10:35.470Z,86.36
2019-03-03T03:11:28.246Z,86.68
2019-03-03T03:12:28.126Z,86.47
2019-03-03T03:13:28.168Z,86.88
2019-03-03T03:14:28.100Z,86.98
2019-03-03T03:15:28.102Z,86.98
2019-03-03T03:16:28.134Z,86.68
2019-03-03T03:17:28.086Z,86.78
2019-03-03T03:18:28.064Z,86.78
2019-03-03T03:19:28.031Z,86.68
2019-03-03T03:20:28.059Z,86.78
2019-03-03T03:21:28.042Z,86.78
2019-03-03T03:22:28.059Z,86.57
2019-03-03T03:23:28.101Z,86.47
2019-03-03T03:24:27.980Z,86.78
2019-03-03T03:25:27.979Z,86.47
2019-03-03T03:26:27.964Z,86.57
2019-03-03T03:27:28.026Z,86.26
2019-03-03T03:28:27.980Z,86.47
2019-03-03T03:29:27.958Z,86.57
2019-03-03T03:30:27.939Z,86.88
2019-03-03T03:31:27.919Z,86.57
2019-03-03T03:32:35.711Z,86.78
2019-03-03T03:33:27.921Z,86.68
2019-03-03T03:34:27.884Z,86.57
2019-03-03T03:35:27.934Z,86.47
2019-03-03T03:36:27.848Z,86.88
2019-03-03T03:37:27.844Z,86.57
2019-03-03T03:38:27.835Z,86.68
2019-03-03T03:39:27.927Z,86.68
2019-03-03T03:40:27.840Z,86.57
2019-03-03T03:41:27.902Z,86.78
2019-03-03T03:42:27.783Z,86.57
2019-03-03T03:43:27.818Z,86.68
2019-03-03T03:44:27.759Z,86.36
2019-03-03T03:45:27.753Z,86.68
2019-03-03T03:46:27.773Z,86.78
2019-03-03T03:47:27.728Z,86.78
2019-03-03T03:48:27.740Z,86.05
2019-03-03T03:49:27.722Z,86.71
2019-03-03T03:50:27.689Z,86.68
2019-03-03T03:51:27.706Z,86.26
2019-03-03T03:52:27.715Z,86.26
2019-03-03T03:53:27.658Z,86.88
2019-03-03T03:54:27.676Z,86.88
2019-03-03T03:55:27.672Z,86.88
2019-03-03T03:56:27.628Z,86.57
2019-03-03T03:57:27.639Z,86.57
2019-03-03T03:58:27.626Z,86.57
2019-03-03T03:59:27.617Z,86.47
2019-03-03T04:00:27.598Z,86.68
2019-03-03T04:01:27.583Z,86.88
2019-03-03T04:02:27.583Z,86.78
2019-03-03T04:03:27.551Z,86.57
2019-03-03T04:04:27.639Z,86.78
2019-03-03T04:05:27.529Z,86.78
2019-03-03T04:06:27.533Z,86.88
2019-03-03T04:07:27.500Z,86.78
2019-03-03T04:08:27.504Z,86.98
2019-03-03T04:09:27.500Z,86.78
2019-03-03T04:10:27.470Z,86.57
2019-03-03T04:11:27.504Z,86.41
2019-03-03T04:12:27.451Z,86.57
2019-03-03T04:13:27.433Z,86.68
2019-03-03T04:14:27.427Z,86.68
2019-03-03T04:15:27.471Z,86.88
2019-03-03T04:16:27.404Z,86.36
2019-03-03T04:17:27.415Z,86.57
2019-03-03T04:18:27.391Z,86.78
2019-03-03T04:19:27.388Z,86.51
2019-03-03T04:20:27.365Z,86.78
2019-03-03T04:21:27.344Z,86.61
2019-03-03T04:22:27.335Z,86.78
2019-03-03T04:23:35.441Z,86.61
2019-03-03T04:24:27.347Z,86.71
2019-03-03T04:25:27.300Z,86.57
2019-03-03T04:26:27.343Z,86.82
2019-03-03T04:27:27.350Z,86.82
2019-03-03T04:28:27.434Z,86.47
2019-03-03T04:29:27.297Z,86.71
2019-03-03T04:30:27.248Z,86.20
2019-03-03T04:31:27.244Z,86.47
2019-03-03T04:32:27.232Z,86.47
2019-03-03T04:33:27.235Z,86.47
2019-03-03T04:34:27.201Z,86.57
2019-03-03T04:35:27.255Z,86.41
2019-03-03T04:36:27.182Z,86.61
2019-03-03T04:37:27.167Z,86.61
2019-03-03T04:38:27.167Z,86.71
2019-03-03T04:39:27.151Z,86.82
2019-03-03T04:40:27.203Z,86.61
2019-03-03T04:41:27.214Z,86.71
2019-03-03T04:42:27.110Z,86.82
2019-03-03T04:43:27.100Z,86.61
2019-03-03T04:44:27.084Z,86.61
2019-03-03T04:45:27.103Z,86.41
2019-03-03T04:46:27.105Z,86.57
2019-03-03T04:47:27.115Z,86.71
2019-03-03T04:48:27.044Z,86.41
2019-03-03T04:49:27.029Z,86.61
2019-03-03T04:50:27.019Z,86.41
2019-03-03T04:51:27.047Z,86.41
2019-03-03T04:52:34.126Z,86.51
2019-03-03T04:53:34.079Z,86.41
2019-03-03T04:56:00.360Z,86.30
2019-03-03T04:57:00.363Z,86.61
2019-03-03T04:58:00.327Z,86.20
2019-03-03T04:59:00.323Z,86.61
2019-03-03T05:00:00.316Z,86.61
2019-03-03T05:01:00.296Z,86.71
2019-03-03T05:02:00.297Z,86.61
2019-03-03T05:03:00.266Z,87.02
2019-03-03T05:04:00.259Z,87.02
2019-03-03T05:05:00.293Z,86.92
2019-03-03T05:06:00.240Z,86.82
2019-03-03T05:07:00.226Z,86.92
2019-03-03T05:08:00.262Z,86.61
2019-03-03T05:09:00.203Z,85.89
2019-03-03T05:10:00.362Z,86.30
2019-03-03T05:11:00.185Z,86.82
2019-03-03T05:12:00.166Z,86.78
2019-03-03T05:13:00.179Z,86.61
2019-03-03T05:14:00.174Z,86.71
2019-03-03T05:15:00.311Z,86.71
2019-03-03T05:16:00.169Z,86.61
2019-03-03T05:17:00.113Z,86.71
2019-03-03T05:18:00.105Z,86.82
2019-03-03T05:19:00.147Z,86.82
2019-03-03T05:20:00.306Z,86.82
2019-03-03T05:21:00.096Z,86.82
2019-03-03T05:22:00.061Z,87.02
2019-03-03T05:23:00.057Z,86.82
2019-03-03T05:24:00.032Z,86.71
2019-03-03T05:25:00.039Z,87.02
2019-03-03T05:26:00.034Z,86.71
2019-03-03T05:27:00.012Z,86.82
2019-03-03T05:28:00.000Z,86.82
2019-03-03T05:28:59.995Z,86.71
2019-03-03T05:29:59.968Z,86.20
2019-03-03T05:30:59.960Z,85.89
2019-03-03T05:31:59.954Z,85.99
2019-03-03T05:32:59.947Z,85.78
2019-03-03T05:33:59.982Z,86.20
2019-03-03T05:34:59.918Z,85.78
2019-03-03T05:35:59.921Z,86.71
2019-03-03T05:36:59.915Z,85.95
2019-03-03T05:37:59.894Z,85.58
2019-03-03T05:38:59.874Z,85.78
2019-03-03T05:39:59.886Z,85.58
2019-03-03T05:40:59.859Z,85.37
2019-03-03T05:41:59.841Z,85.23
2019-03-03T05:42:59.888Z,85.58
2019-03-03T05:43:59.822Z,85.27
2019-03-03T05:44:59.804Z,85.17
2019-03-03T05:45:59.843Z,85.44
2019-03-03T05:46:59.788Z,85.23
2019-03-03T05:47:59.778Z,85.44
2019-03-03T05:48:59.771Z,85.58
2019-03-03T05:49:59.758Z,85.27
2019-03-03T05:50:59.800Z,85.37
2019-03-03T05:51:59.767Z,85.37
2019-03-03T05:52:59.724Z,85.54
2019-03-03T05:53:59.709Z,85.44
2019-03-03T05:54:59.726Z,85.37
2019-03-03T05:55:59.810Z,85.89
2019-03-03T05:56:59.677Z,85.47
2019-03-03T05:57:59.681Z,85.58
2019-03-03T05:58:59.664Z,85.58
2019-03-03T05:59:59.642Z,85.37
2019-03-03T06:00:59.644Z,85.58
2019-03-03T06:01:59.622Z,85.58
2019-03-03T06:02:59.615Z,85.58
2019-03-03T06:03:59.624Z,85.89
2019-03-03T06:04:59.592Z,85.58
2019-03-03T06:05:59.571Z,85.58
2019-03-03T06:06:59.569Z,85.68
2019-03-03T06:07:59.587Z,85.58
2019-03-03T06:08:59.536Z,85.68
2019-03-03T06:09:59.537Z,85.68
2019-03-03T06:10:59.518Z,85.68
2019-03-03T06:11:59.541Z,85.47
2019-03-03T06:12:59.503Z,85.17
2019-03-03T06:13:59.508Z,84.75
2019-03-03T06:14:59.470Z,85.47
2019-03-03T06:15:59.466Z,85.06
2019-03-03T06:16:59.464Z,84.72
2019-03-03T06:17:59.462Z,84.61
2019-03-03T06:18:59.435Z,84.72
2019-03-03T06:19:59.421Z,84.61
2019-03-03T06:20:59.413Z,84.34
2019-03-03T06:21:59.410Z,84.44
2019-03-03T06:22:59.410Z,84.75
2019-03-03T06:23:59.375Z,83.72
2019-03-03T06:24:59.399Z,83.83
2019-03-03T06:25:59.364Z,83.51
2019-03-03T06:26:59.351Z,83.37
2019-03-03T06:27:59.362Z,83.41
2019-03-03T06:28:59.346Z,83.62
2019-03-03T06:29:59.305Z,84.03
2019-03-03T06:30:59.320Z,83.41
2019-03-03T06:31:59.313Z,83.41
2019-03-03T06:32:59.271Z,83.48
2019-03-03T06:33:59.305Z,83.72
2019-03-03T06:34:59.251Z,83.68
2019-03-03T06:35:59.239Z,83.89
2019-03-03T06:36:59.254Z,83.93
2019-03-03T06:37:59.224Z,82.96
2019-03-03T06:38:59.232Z,82.86
2019-03-03T06:39:59.236Z,83.17
2019-03-03T06:40:59.220Z,82.86
2019-03-03T06:41:59.196Z,82.65
2019-03-03T06:42:59.174Z,82.75
2019-03-03T06:43:59.175Z,82.65
2019-03-03T06:44:59.196Z,82.75
2019-03-03T06:45:59.145Z,82.40
2019-03-03T06:46:59.126Z,82.20
2019-03-03T06:47:59.168Z,82.30
2019-03-03T06:48:59.096Z,81.79
2019-03-03T06:49:59.092Z,81.99
2019-03-03T06:50:59.088Z,81.27
2019-03-03T06:51:59.094Z,81.27
2019-03-03T06:52:59.050Z,81.27
2019-03-03T06:53:59.043Z,81.13
2019-03-03T06:54:59.056Z,80.51
2019-03-03T06:55:59.036Z,80.20
2019-03-03T06:56:59.008Z,80.62
2019-03-03T06:57:59.022Z,80.30
2019-03-03T06:58:59.004Z,80.62
2019-03-03T06:59:58.974Z,80.62
2019-03-03T07:00:58.985Z,79.69
2019-03-03T07:01:58.953Z,79.75
2019-03-03T07:02:58.954Z,79.69
2019-03-03T07:03:58.957Z,79.24
2019-03-03T07:04:58.920Z,79.55
2019-03-03T07:05:58.937Z,79.24
2019-03-03T07:06:58.919Z,79.14
2019-03-03T07:07:58.898Z,78.00
2019-03-03T07:08:58.909Z,78.17
2019-03-03T07:09:58.900Z,78.17
2019-03-03T07:10:58.852Z,78.38
2019-03-03T07:11:58.839Z,77.97
2019-03-03T07:12:58.864Z,78.17
2019-03-03T07:13:58.816Z,78.38
2019-03-03T07:14:58.805Z,78.38
2019-03-03T07:15:59.433Z,77.93
2019-03-03T07:16:58.784Z,77.51
2019-03-03T07:17:58.797Z,76.39
2019-03-03T07:18:58.788Z,76.49
2019-03-03T07:19:58.751Z,76.83
2019-03-03T07:20:58.738Z,76.70
2019-03-03T07:21:58.744Z,76.70
2019-03-03T07:22:58.724Z,76.79
2019-03-03T07:23:58.724Z,76.59
2019-03-03T07:24:58.711Z,76.79
2019-03-03T07:25:58.688Z,77.51
2019-03-03T07:26:58.695Z,77.00
2019-03-03T07:27:58.665Z,76.28
2019-03-03T07:28:58.657Z,75.87
2019-03-03T07:29:58.638Z,76.25
2019-03-03T07:30:58.628Z,76.66
2019-03-03T07:31:58.633Z,75.05
2019-03-03T07:32:58.642Z,74.53
2019-03-03T07:33:58.626Z,74.70
2019-03-03T07:34:58.583Z,75.12
2019-03-03T07:35:58.610Z,75.87
2019-03-03T07:36:58.595Z,75.84
2019-03-03T07:37:58.553Z,75.01
2019-03-03T07:38:58.607Z,75.32
2019-03-03T07:39:58.559Z,75.15
2019-03-03T07:40:58.546Z,74.63
2019-03-03T07:41:58.535Z,74.74
2019-03-03T07:42:58.498Z,74.63
2019-03-03T07:43:58.501Z,75.56
2019-03-03T07:44:58.487Z,74.95
2019-03-03T07:45:58.492Z,75.15
2019-03-03T07:46:58.475Z,74.74
2019-03-03T07:47:58.502Z,74.74
2019-03-03T07:48:58.443Z,75.35
2019-03-03T07:49:58.425Z,74.84
2019-03-03T07:50:58.458Z,75.46
2019-03-03T07:51:58.413Z,74.74
2019-03-03T07:52:58.393Z,74.02
2019-03-03T07:53:58.389Z,74.08
2019-03-03T07:54:58.368Z,75.01
2019-03-03T07:55:58.354Z,75.32
2019-03-03T07:56:58.358Z,75.42
2019-03-03T07:57:58.355Z,74.36
2019-03-03T07:58:58.333Z,74.84
2019-03-03T07:59:58.357Z,74.57
2019-03-03T08:00:58.319Z,74.02
2019-03-03T08:01:58.302Z,74.84
2019-03-03T08:02:58.306Z,74.22
2019-03-03T08:03:58.283Z,73.40
2019-03-03T08:04:58.260Z,72.78
2019-03-03T08:05:58.274Z,73.16
2019-03-03T08:06:58.235Z,72.24
2019-03-03T08:07:58.224Z,72.55
2019-03-03T08:08:58.235Z,72.55
2019-03-03T08:09:58.529Z,72.75
2019-03-03T08:10:58.211Z,73.27
2019-03-03T08:11:58.180Z,72.41
2019-03-03T08:12:58.174Z,72.96
2019-03-03T08:13:58.191Z,72.13
2019-03-03T08:14:58.174Z,72.13
2019-03-03T08:15:58.145Z,71.72
2019-03-03T08:16:58.127Z,71.62
2019-03-03T08:17:58.130Z,71.48
2019-03-03T08:18:58.104Z,71.48
2019-03-03T08:19:58.136Z,71.93
2019-03-03T08:20:58.086Z,71.89
2019-03-03T08:21:58.067Z,71.72
2019-03-03T08:22:58.055Z,70.76
2019-03-03T08:23:58.062Z,71.48
2019-03-03T08:24:58.077Z,70.49
2019-03-03T08:25:58.040Z,70.70
2019-03-03T08:26:58.027Z,70.39
2019-03-03T08:27:57.999Z,70.90
2019-03-03T08:28:58.004Z,71.51
2019-03-03T08:29:58.043Z,70.56
2019-03-03T08:30:57.967Z,70.15
2019-03-03T08:31:57.971Z,69.36
2019-03-03T08:32:57.975Z,69.94
2019-03-03T08:33:57.951Z,69.74
2019-03-03T08:34:57.971Z,69.74
2019-03-03T08:35:57.980Z,69.53
2019-03-03T08:36:57.914Z,70.15
2019-03-03T08:37:57.903Z,70.56
2019-03-03T08:38:57.899Z,69.53
2019-03-03T08:39:57.877Z,69.53
2019-03-03T08:40:57.874Z,69.94
2019-03-03T08:41:57.887Z,69.53
2019-03-03T08:42:57.849Z,68.40
2019-03-03T08:43:57.838Z,68.51
2019-03-03T08:44:57.908Z,68.71
2019-03-03T08:45:57.829Z,69.32
2019-03-03T08:46:57.796Z,68.81
2019-03-03T08:47:57.798Z,68.95
2019-03-03T08:48:57.788Z,69.98
2019-03-03T08:49:57.771Z,70.36
2019-03-03T08:50:57.789Z,70.56
2019-03-03T08:51:57.754Z,68.61
2019-03-03T08:52:57.744Z,69.12
2019-03-03T08:53:57.716Z,69.12
2019-03-03T08:54:59.988Z,68.30
2019-03-03T08:55:57.716Z,69.53
2019-03-03T08:56:57.679Z,68.57
2019-03-03T08:57:57.689Z,68.57
2019-03-03T08:58:57.678Z,68.27
2019-03-03T08:59:57.656Z,67.62
2019-03-03T09:00:57.660Z,68.03
2019-03-03T09:01:57.653Z,68.96
2019-03-03T09:02:57.633Z,68.92
2019-03-03T09:03:57.656Z,67.90
2019-03-03T09:04:57.609Z,68.30
2019-03-03T09:05:57.601Z,68.10
2019-03-03T09:06:57.582Z,67.14
2019-03-03T09:07:57.576Z,66.84
2019-03-03T09:08:57.572Z,66.33
2019-03-03T09:09:57.585Z,66.81
2019-03-03T09:10:57.545Z,65.07
2019-03-03T09:11:57.526Z,65.99
2019-03-03T09:12:57.507Z,66.09
2019-03-03T09:13:57.500Z,66.19
2019-03-03T09:14:57.494Z,66.06
2019-03-03T09:15:57.480Z,65.86
2019-03-03T09:16:57.535Z,64.94
2019-03-03T09:17:57.446Z,64.62
2019-03-03T09:18:57.457Z,64.32
2019-03-03T09:19:57.434Z,64.01
2019-03-03T09:20:57.425Z,64.50
2019-03-03T09:21:57.410Z,65.11
2019-03-03T09:22:57.406Z,64.70
2019-03-03T09:23:57.392Z,63.37
2019-03-03T09:24:57.437Z,63.06
2019-03-03T09:25:57.409Z,63.37
2019-03-03T09:26:57.366Z,63.06
2019-03-03T09:27:57.373Z,63.06
2019-03-03T09:28:57.382Z,64.18
2019-03-03T09:29:57.324Z,63.57
2019-03-03T09:30:57.319Z,62.76
2019-03-03T09:31:57.295Z,63.34
2019-03-03T09:32:57.297Z,63.03
2019-03-03T09:33:57.293Z,62.11
2019-03-03T09:34:57.263Z,62.11
2019-03-03T09:35:57.282Z,63.44
2019-03-03T09:36:57.235Z,63.13
2019-03-03T09:37:57.225Z,63.34
2019-03-03T09:38:57.234Z,64.26
2019-03-03T09:39:57.202Z,62.08
2019-03-03T09:40:57.194Z,62.29
2019-03-03T09:41:57.212Z,63.31
2019-03-03T09:42:57.177Z,63.82
2019-03-03T09:43:57.167Z,64.03
2019-03-03T09:44:57.163Z,62.87
2019-03-03T09:45:57.135Z,62.16
2019-03-03T09:46:57.151Z,62.70
2019-03-03T09:47:57.128Z,61.03
2019-03-03T09:48:57.124Z,60.96
2019-03-03T09:49:57.093Z,61.03
2019-03-03T09:50:57.079Z,60.62
2019-03-03T09:51:57.095Z,60.75
2019-03-03T09:52:57.097Z,60.62
2019-03-03T09:53:57.103Z,60.85
2019-03-03T09:54:57.049Z,61.36
2019-03-03T09:55:57.028Z,62.08
2019-03-03T09:57:04.182Z,62.87
2019-03-03T09:57:57.033Z,62.16
2019-03-03T09:58:56.996Z,60.52
2019-03-03T09:59:56.993Z,60.28
2019-03-03T10:00:56.992Z,59.27
2019-03-03T10:01:56.955Z,59.16
2019-03-03T10:02:56.954Z,59.98
2019-03-03T10:03:56.954Z,60.39
2019-03-03T10:04:56.925Z,60.08
2019-03-03T10:05:56.923Z,58.75
2019-03-03T10:06:56.907Z,58.01
2019-03-03T10:07:56.894Z,58.34
2019-03-03T10:08:56.903Z,58.86
2019-03-03T10:09:56.885Z,59.06
2019-03-03T10:10:56.879Z,58.34
2019-03-03T10:11:56.850Z,58.75
2019-03-03T10:12:56.860Z,59.06
2019-03-03T10:13:56.848Z,59.06
2019-03-03T10:14:56.842Z,60.49
2019-03-03T10:15:56.847Z,60.57
2019-03-03T10:16:56.797Z,59.64
2019-03-03T10:17:56.788Z,58.83
2019-03-03T10:18:56.773Z,57.29
2019-03-03T10:19:56.759Z,56.68
2019-03-03T10:20:56.757Z,57.17
2019-03-03T10:21:56.733Z,58.22
2019-03-03T10:22:56.730Z,58.09
2019-03-03T10:23:56.723Z,58.39
2019-03-03T10:24:56.720Z,58.39
2019-03-03T10:25:56.697Z,58.29
2019-03-03T10:26:56.705Z,57.27
2019-03-03T10:27:56.680Z,56.94
2019-03-03T10:28:56.656Z,57.57
2019-03-03T10:29:56.663Z,57.96
2019-03-03T10:30:56.648Z,55.91
2019-03-03T10:31:56.626Z,55.41
2019-03-03T10:32:56.619Z,56.12
2019-03-03T10:33:56.620Z,55.91
2019-03-03T10:34:56.599Z,57.34
2019-03-03T10:35:56.602Z,56.32
2019-03-03T10:36:56.601Z,56.94
2019-03-03T10:37:56.556Z,57.73
2019-03-03T10:38:56.569Z,57.83
2019-03-03T10:39:56.527Z,56.81
2019-03-03T10:40:56.521Z,56.81
2019-03-03T10:41:56.549Z,56.50
2019-03-03T10:42:56.506Z,55.46
2019-03-03T10:43:56.509Z,55.05
2019-03-03T10:44:56.489Z,54.85
2019-03-03T10:45:56.488Z,55.15
2019-03-03T10:46:56.467Z,55.46
2019-03-03T10:47:56.447Z,54.94
2019-03-03T10:48:56.431Z,55.05
2019-03-03T10:49:56.419Z,54.64
2019-03-03T10:50:56.411Z,53.92
2019-03-03T10:51:56.399Z,53.64
2019-03-03T10:52:56.425Z,55.35
2019-03-03T10:53:56.413Z,55.28
2019-03-03T10:54:56.380Z,54.57
2019-03-03T10:55:56.349Z,55.18
2019-03-03T10:56:56.343Z,55.28
2019-03-03T10:57:56.332Z,54.97
2019-03-03T10:58:56.323Z,55.79
2019-03-03T10:59:56.320Z,55.38
2019-03-03T11:00:56.323Z,55.18
2019-03-03T11:01:56.290Z,55.41
2019-03-03T11:02:56.310Z,55.71
2019-03-03T11:03:56.270Z,55.10
2019-03-03T11:04:56.241Z,56.23
2019-03-03T11:05:56.269Z,55.71
2019-03-03T11:06:56.225Z,56.84
2019-03-03T11:07:56.216Z,56.84
2019-03-03T11:08:56.237Z,57.55
2019-03-03T11:09:56.213Z,56.84
2019-03-03T11:10:57.785Z,55.91
2019-03-03T11:11:56.230Z,56.94
2019-03-03T11:12:56.179Z,56.73
2019-03-03T11:13:56.201Z,56.84
2019-03-03T11:14:56.138Z,56.32
2019-03-03T11:15:56.135Z,56.63
2019-03-03T11:16:56.131Z,58.37
2019-03-03T11:17:56.104Z,57.21
2019-03-03T11:18:56.401Z,57.39
2019-03-03T11:19:56.082Z,58.01
2019-03-03T11:20:56.096Z,58.11
2019-03-03T11:21:56.057Z,56.78
2019-03-03T11:22:56.053Z,56.48
2019-03-03T11:23:56.060Z,55.56
2019-03-03T11:24:56.024Z,56.85
2019-03-03T11:25:56.014Z,55.63
2019-03-03T11:26:56.027Z,55.13
2019-03-03T11:27:55.999Z,55.53
2019-03-03T11:28:56.004Z,55.33
2019-03-03T11:29:55.986Z,54.49
2019-03-03T11:30:55.956Z,55.43
2019-03-03T11:31:55.969Z,56.02
2019-03-03T11:32:55.948Z,55.51
2019-03-03T11:33:55.944Z,55.20
2019-03-03T11:34:55.905Z,56.29
2019-03-03T11:35:55.913Z,55.07
2019-03-03T11:36:55.894Z,55.48
2019-03-03T11:37:55.874Z,55.25
2019-03-03T11:38:55.890Z,54.33
2019-03-03T11:39:55.873Z,54.74
2019-03-03T11:40:55.851Z,55.35
2019-03-03T11:41:55.836Z,54.74
2019-03-03T11:42:55.840Z,54.77
2019-03-03T11:43:55.836Z,54.69
2019-03-03T11:44:55.811Z,55.20
2019-03-03T11:45:55.783Z,55.10
2019-03-03T11:46:55.783Z,55.41
2019-03-03T11:48:03.820Z,56.32
2019-03-03T11:48:56.792Z,56.12
2019-03-03T11:49:55.765Z,55.51
2019-03-03T11:50:55.741Z,55.71
2019-03-03T11:51:55.736Z,55.51
2019-03-03T11:52:55.725Z,55.07
2019-03-03T11:53:55.709Z,55.30
2019-03-03T11:54:55.698Z,55.71
2019-03-03T11:55:55.734Z,55.41
2019-03-03T11:56:55.677Z,55.00
2019-03-03T11:57:55.668Z,56.22
2019-03-03T11:58:55.664Z,55.89
2019-03-03T11:59:55.640Z,55.07
2019-03-03T12:00:55.636Z,55.07
2019-03-03T12:01:55.633Z,55.48
2019-03-03T12:02:55.609Z,55.58
2019-03-03T12:03:55.601Z,55.18
2019-03-03T12:04:55.593Z,55.28
2019-03-03T12:05:55.589Z,54.87
2019-03-03T12:06:55.574Z,55.58
2019-03-03T12:07:55.562Z,55.38
2019-03-03T12:08:55.541Z,55.58
2019-03-03T12:09:55.526Z,55.48
2019-03-03T12:10:55.516Z,56.27
2019-03-03T12:11:55.492Z,56.81
2019-03-03T12:12:55.490Z,55.55
2019-03-03T12:13:55.522Z,55.35
2019-03-03T12:14:55.476Z,54.85
2019-03-03T12:15:55.463Z,55.66
2019-03-03T12:16:55.461Z,55.07
2019-03-03T12:17:55.428Z,55.25
2019-03-03T12:18:55.430Z,54.64
2019-03-03T12:19:55.412Z,54.85
2019-03-03T12:20:55.400Z,54.24
2019-03-03T12:21:55.401Z,54.13
2019-03-03T12:22:55.379Z,54.44
2019-03-03T12:23:55.380Z,54.33
2019-03-03T12:24:55.398Z,53.63
2019-03-03T12:25:55.360Z,53.93
2019-03-03T12:26:55.374Z,53.90
2019-03-03T12:27:55.329Z,53.59
2019-03-03T12:28:55.315Z,52.78
2019-03-03T12:29:55.331Z,52.68
2019-03-03T12:30:55.300Z,52.48
2019-03-03T12:31:55.311Z,52.86
2019-03-03T12:32:55.273Z,52.35
2019-03-03T12:33:55.271Z,53.37
2019-03-03T12:34:55.240Z,52.86
2019-03-03T12:35:55.226Z,51.72
2019-03-03T12:36:55.240Z,50.81
2019-03-03T12:37:55.224Z,50.81
2019-03-03T12:38:55.196Z,51.75
2019-03-03T12:39:55.204Z,51.82
2019-03-03T12:40:55.168Z,51.34
2019-03-03T12:41:55.158Z,51.34
2019-03-03T12:42:55.214Z,51.54
2019-03-03T12:43:55.147Z,51.95
2019-03-03T12:44:55.135Z,51.84
2019-03-03T12:45:55.130Z,51.54
2019-03-03T12:46:55.136Z,51.26
2019-03-03T12:47:55.132Z,51.77
2019-03-03T12:48:55.081Z,52.78
2019-03-03T12:49:55.087Z,52.30
2019-03-03T12:50:55.064Z,52.10
2019-03-03T12:51:55.061Z,52.30
2019-03-03T12:52:55.040Z,52.00
2019-03-03T12:53:55.035Z,52.37
2019-03-03T12:54:55.056Z,51.79